sensor_id;sensor_type;location;lat;lon;timestamp;pressure;altitude;pressure_sealevel;temperature;humidity
13800;BME280;6971;50.028;9.258;2023-02-04T00:01:46;100616.13;;;5.62;97.79
13800;BME280;6971;50.028;9.258;2023-02-04T00:06:47;100614.28;;;5.69;97.53
13800;BME280;6971;50.028;9.258;2023-02-04T00:11:48;100618.69;;;5.67;97.11
13800;BME280;6971;50.028;9.258;2023-02-04T00:16:48;100616.00;;;5.72;97.19
13800;BME280;6971;50.028;9.258;2023-02-04T00:21:49;100623.00;;;5.70;96.49
13800;BME280;6971;50.028;9.258;2023-02-04T00:26:50;100638.72;;;5.70;95.93
13800;BME280;6971;50.028;9.258;2023-02-04T00:31:51;100646.56;;;5.70;96.64
13800;BME280;6971;50.028;9.258;2023-02-04T00:36:51;100653.47;;;5.74;94.74
13800;BME280;6971;50.028;9.258;2023-02-04T00:41:52;100650.84;;;5.74;95.54
13800;BME280;6971;50.028;9.258;2023-02-04T00:46:53;100649.97;;;5.73;94.67
13800;BME280;6971;50.028;9.258;2023-02-04T00:51:55;100648.34;;;5.66;94.37
13800;BME280;6971;50.028;9.258;2023-02-04T00:56:56;100653.50;;;5.72;92.93
13800;BME280;6971;50.028;9.258;2023-02-04T01:01:57;100667.50;;;5.68;93.09
13800;BME280;6971;50.028;9.258;2023-02-04T01:06:59;100659.75;;;5.60;92.40
13800;BME280;6971;50.028;9.258;2023-02-04T01:12:00;100675.50;;;5.57;92.99
13800;BME280;6971;50.028;9.258;2023-02-04T01:17:01;100684.25;;;5.55;93.13
13800;BME280;6971;50.028;9.258;2023-02-04T01:22:01;100693.91;;;5.48;92.36
13800;BME280;6971;50.028;9.258;2023-02-04T01:27:02;100707.88;;;5.47;93.17
13800;BME280;6971;50.028;9.258;2023-02-04T01:32:03;100707.94;;;5.41;93.36
13800;BME280;6971;50.028;9.258;2023-02-04T01:37:04;100720.97;;;5.44;91.96
13800;BME280;6971;50.028;9.258;2023-02-04T01:42:05;100723.81;;;5.25;94.81
13800;BME280;6971;50.028;9.258;2023-02-04T01:47:06;100728.09;;;5.32;93.43
13800;BME280;6971;50.028;9.258;2023-02-04T01:52:09;100726.44;;;5.25;93.36
13800;BME280;6971;50.028;9.258;2023-02-04T01:57:14;100731.00;;;5.06;93.50
13800;BME280;6971;50.028;9.258;2023-02-04T02:02:41;100732.06;;;4.85;94.50
13800;BME280;6971;50.028;9.258;2023-02-04T02:07:42;100732.91;;;4.87;93.66
13800;BME280;6971;50.028;9.258;2023-02-04T02:12:44;100736.50;;;4.78;94.02
13800;BME280;6971;50.028;9.258;2023-02-04T02:17:46;100731.38;;;4.62;94.85
13800;BME280;6971;50.028;9.258;2023-02-04T02:23:13;100737.50;;;4.56;95.47
13800;BME280;6971;50.028;9.258;2023-02-04T02:28:18;100750.69;;;4.42;95.92
13800;BME280;6971;50.028;9.258;2023-02-04T02:33:20;100757.72;;;4.34;96.85
13800;BME280;6971;50.028;9.258;2023-02-04T02:38:21;100763.84;;;4.27;97.68
13800;BME280;6971;50.028;9.258;2023-02-04T02:43:24;100773.56;;;4.03;100.00
13800;BME280;6971;50.028;9.258;2023-02-04T02:48:26;100769.19;;;4.05;100.00
13800;BME280;6971;50.028;9.258;2023-02-04T02:53:29;100770.00;;;4.13;100.00
13800;BME280;6971;50.028;9.258;2023-02-04T02:58:32;100785.72;;;4.07;100.00
13800;BME280;6971;50.028;9.258;2023-02-04T03:03:36;100788.31;;;4.07;100.00
13800;BME280;6971;50.028;9.258;2023-02-04T03:08:39;100793.53;;;4.05;100.00
13800;BME280;6971;50.028;9.258;2023-02-04T03:13:40;100806.53;;;4.16;100.00
13800;BME280;6971;50.028;9.258;2023-02-04T03:18:41;100809.16;;;4.15;100.00
13800;BME280;6971;50.028;9.258;2023-02-04T03:23:42;100823.91;;;4.19;100.00
13800;BME280;6971;50.028;9.258;2023-02-04T03:28:43;100824.69;;;4.37;100.00
13800;BME280;6971;50.028;9.258;2023-02-04T03:33:43;100821.19;;;4.36;100.00
13800;BME280;6971;50.028;9.258;2023-02-04T03:38:44;100820.34;;;4.34;98.96
13800;BME280;6971;50.028;9.258;2023-02-04T03:43:46;100828.19;;;4.34;98.16
13800;BME280;6971;50.028;9.258;2023-02-04T03:48:46;100833.41;;;4.33;97.45
13800;BME280;6971;50.028;9.258;2023-02-04T03:53:47;100838.63;;;4.33;96.97
13800;BME280;6971;50.028;9.258;2023-02-04T03:58:48;100850.81;;;4.34;95.75
13800;BME280;6971;50.028;9.258;2023-02-04T04:03:49;100850.84;;;4.30;96.08
13800;BME280;6971;50.028;9.258;2023-02-04T04:08:49;100847.34;;;4.28;96.34
13800;BME280;6971;50.028;9.258;2023-02-04T04:13:50;100856.06;;;4.24;96.80
13800;BME280;6971;50.028;9.258;2023-02-04T04:18:51;100855.38;;;3.77;100.00
13800;BME280;6971;50.028;9.258;2023-02-04T04:23:52;100873.59;;;3.92;100.00
13800;BME280;6971;50.028;9.258;2023-02-04T04:28:53;100867.47;;;4.04;97.18
13800;BME280;6971;50.028;9.258;2023-02-04T04:33:53;100874.47;;;3.99;95.22
13800;BME280;6971;50.028;9.258;2023-02-04T04:38:54;100880.53;;;3.98;95.68
13800;BME280;6971;50.028;9.258;2023-02-04T04:43:55;100893.59;;;3.95;95.73
13800;BME280;6971;50.028;9.258;2023-02-04T04:48:56;100888.38;;;3.94;97.60
13800;BME280;6971;50.028;9.258;2023-02-04T04:53:57;100887.59;;;3.62;100.00
13800;BME280;6971;50.028;9.258;2023-02-04T04:58:58;100904.13;;;3.34;100.00
13800;BME280;6971;50.028;9.258;2023-02-04T05:03:59;100911.94;;;3.36;100.00
13800;BME280;6971;50.028;9.258;2023-02-04T05:09:00;100910.19;;;3.22;100.00
13800;BME280;6971;50.028;9.258;2023-02-04T05:14:00;100922.38;;;3.20;100.00
13800;BME280;6971;50.028;9.258;2023-02-04T05:19:01;100924.09;;;2.99;100.00
13800;BME280;6971;50.028;9.258;2023-02-04T05:24:02;100925.75;;;2.66;100.00
13800;BME280;6971;50.028;9.258;2023-02-04T05:29:03;100930.94;;;2.63;100.00
13800;BME280;6971;50.028;9.258;2023-02-04T05:34:04;100923.94;;;2.43;100.00
13800;BME280;6971;50.028;9.258;2023-02-04T05:39:05;100921.28;;;2.28;100.00
13800;BME280;6971;50.028;9.258;2023-02-04T05:44:06;100928.19;;;2.26;100.00
13800;BME280;6971;50.028;9.258;2023-02-04T05:49:06;100943.75;;;2.12;100.00
13800;BME280;6971;50.028;9.258;2023-02-04T05:54:07;100941.09;;;2.01;100.00
13800;BME280;6971;50.028;9.258;2023-02-04T05:59:08;100954.72;;;1.65;100.00
13800;BME280;6971;50.028;9.258;2023-02-04T06:04:09;100955.44;;;1.47;100.00
13800;BME280;6971;50.028;9.258;2023-02-04T06:09:10;100959.94;;;1.68;100.00
13800;BME280;6971;50.028;9.258;2023-02-04T06:14:11;100966.91;;;1.69;100.00
13800;BME280;6971;50.028;9.258;2023-02-04T06:19:12;100966.00;;;1.64;100.00
13800;BME280;6971;50.028;9.258;2023-02-04T06:24:13;100952.91;;;1.53;100.00
13800;BME280;6971;50.028;9.258;2023-02-04T06:29:14;100955.63;;;1.69;100.00
13800;BME280;6971;50.028;9.258;2023-02-04T06:34:15;100974.69;;;1.68;100.00
13800;BME280;6971;50.028;9.258;2023-02-04T06:39:16;100985.94;;;1.67;100.00
13800;BME280;6971;50.028;9.258;2023-02-04T06:44:17;100996.25;;;1.59;100.00
13800;BME280;6971;50.028;9.258;2023-02-04T06:49:18;100987.63;;;1.63;100.00
13800;BME280;6971;50.028;9.258;2023-02-04T06:54:20;100999.00;;;1.75;100.00
13800;BME280;6971;50.028;9.258;2023-02-04T06:59:21;101004.22;;;1.79;100.00
13800;BME280;6971;50.028;9.258;2023-02-04T07:04:23;101015.50;;;1.80;100.00
13800;BME280;6971;50.028;9.258;2023-02-04T07:09:24;101012.94;;;1.85;100.00
13800;BME280;6971;50.028;9.258;2023-02-04T07:14:26;101025.97;;;1.89;100.00
13800;BME280;6971;50.028;9.258;2023-02-04T07:19:27;101036.44;;;1.95;100.00
13800;BME280;6971;50.028;9.258;2023-02-04T07:24:28;101047.69;;;1.98;100.00
13800;BME280;6971;50.028;9.258;2023-02-04T07:29:28;101051.25;;;2.11;100.00
13800;BME280;6971;50.028;9.258;2023-02-04T07:34:29;101063.53;;;2.32;100.00
13800;BME280;6971;50.028;9.258;2023-02-04T07:39:30;101079.13;;;2.27;100.00
13800;BME280;6971;50.028;9.258;2023-02-04T07:44:31;101088.72;;;2.39;100.00
13800;BME280;6971;50.028;9.258;2023-02-04T07:49:32;101106.09;;;2.40;100.00
13800;BME280;6971;50.028;9.258;2023-02-04T07:54:33;101114.81;;;2.45;100.00
13800;BME280;6971;50.028;9.258;2023-02-04T07:59:41;101110.66;;;2.76;100.00
13800;BME280;6971;50.028;9.258;2023-02-04T08:04:56;101118.63;;;3.07;100.00
13800;BME280;6971;50.028;9.258;2023-02-04T08:09:57;101129.09;;;3.24;100.00
13800;BME280;6971;50.028;9.258;2023-02-04T08:15:03;101138.69;;;3.33;100.00
13800;BME280;6971;50.028;9.258;2023-02-04T08:20:18;101137.81;;;3.34;100.00
13800;BME280;6971;50.028;9.258;2023-02-04T08:25:19;101143.91;;;3.36;100.00
13800;BME280;6971;50.028;9.258;2023-02-04T08:30:20;101147.44;;;3.55;100.00
13800;BME280;6971;50.028;9.258;2023-02-04T08:35:21;101158.75;;;3.68;100.00
13800;BME280;6971;50.028;9.258;2023-02-04T08:40:21;101167.50;;;3.73;100.00
13800;BME280;6971;50.028;9.258;2023-02-04T08:45:22;101169.22;;;3.81;100.00
13800;BME280;6971;50.028;9.258;2023-02-04T08:50:24;101184.91;;;3.98;100.00
13800;BME280;6971;50.028;9.258;2023-02-04T08:55:34;101192.75;;;3.98;100.00
13800;BME280;6971;50.028;9.258;2023-02-04T09:00:37;101200.56;;;4.05;100.00
13800;BME280;6971;50.028;9.258;2023-02-04T09:05:38;101216.22;;;4.02;100.00
13800;BME280;6971;50.028;9.258;2023-02-04T09:10:39;101213.63;;;4.12;100.00
13800;BME280;6971;50.028;9.258;2023-02-04T09:15:40;101219.72;;;4.04;100.00
13800;BME280;6971;50.028;9.258;2023-02-04T09:20:42;101217.09;;;4.09;100.00
13800;BME280;6971;50.028;9.258;2023-02-04T09:25:44;101220.59;;;4.27;100.00
13800;BME280;6971;50.028;9.258;2023-02-04T09:30:45;101229.31;;;4.32;100.00
13800;BME280;6971;50.028;9.258;2023-02-04T09:35:46;101237.16;;;4.40;100.00
13800;BME280;6971;50.028;9.258;2023-02-04T09:40:52;101237.16;;;4.57;100.00
13800;BME280;6971;50.028;9.258;2023-02-04T09:45:55;101244.97;;;4.90;100.00
13800;BME280;6971;50.028;9.258;2023-02-04T09:51:04;101250.09;;;5.36;100.00
13800;BME280;6971;50.028;9.258;2023-02-04T09:56:08;101253.63;;;5.32;97.47
13800;BME280;6971;50.028;9.258;2023-02-04T10:01:15;101251.03;;;5.14;95.42
13800;BME280;6971;50.028;9.258;2023-02-04T10:06:18;101253.63;;;5.32;94.68
13800;BME280;6971;50.028;9.258;2023-02-04T10:11:21;101266.66;;;5.42;95.29
13800;BME280;6971;50.028;9.258;2023-02-04T10:16:25;101282.25;;;5.70;95.06
13800;BME280;6971;50.028;9.258;2023-02-04T10:21:31;101272.63;;;5.78;93.90
13800;BME280;6971;50.028;9.258;2023-02-04T10:26:47;101268.09;;;6.14;92.26
13800;BME280;6971;50.028;9.258;2023-02-04T10:31:51;101273.53;;;5.65;93.43
13800;BME280;6971;50.028;9.258;2023-02-04T10:36:54;101275.31;;;5.59;94.28
13800;BME280;6971;50.028;9.258;2023-02-04T10:41:59;101291.03;;;5.44;91.92
13800;BME280;6971;50.028;9.258;2023-02-04T10:47:02;101287.44;;;5.76;95.25
13800;BME280;6971;50.028;9.258;2023-02-04T10:52:14;101288.34;;;5.69;93.19
13800;BME280;6971;50.028;9.258;2023-02-04T10:57:22;101283.16;;;5.59;91.29
13800;BME280;6971;50.028;9.258;2023-02-04T11:07:30;101287.47;;;5.65;91.78
13800;BME280;6971;50.028;9.258;2023-02-04T11:12:41;101285.78;;;5.58;91.55
13800;BME280;6971;50.028;9.258;2023-02-04T11:17:42;101297.13;;;5.51;90.88
13800;BME280;6971;50.028;9.258;2023-02-04T11:22:45;101298.91;;;5.30;91.06
13800;BME280;6971;50.028;9.258;2023-02-04T11:27:49;101292.81;;;5.39;91.87
13800;BME280;6971;50.028;9.258;2023-02-04T11:33:03;101291.94;;;5.35;92.01
13800;BME280;6971;50.028;9.258;2023-02-04T11:38:22;101298.91;;;5.39;94.18
13800;BME280;6971;50.028;9.258;2023-02-04T11:43:25;101292.78;;;5.45;92.40
13800;BME280;6971;50.028;9.258;2023-02-04T11:48:27;101302.34;;;5.55;90.34
13800;BME280;6971;50.028;9.258;2023-02-04T11:53:32;101303.91;;;6.05;86.85
13800;BME280;6971;50.028;9.258;2023-02-04T11:58:37;101305.44;;;6.46;82.14
13800;BME280;6971;50.028;9.258;2023-02-04T12:03:45;101309.78;;;6.50;80.64
13800;BME280;6971;50.028;9.258;2023-02-04T12:08:46;101311.69;;;6.19;80.24
13800;BME280;6971;50.028;9.258;2023-02-04T12:13:49;101310.75;;;6.35;80.84
13800;BME280;6971;50.028;9.258;2023-02-04T12:18:52;101311.59;;;6.34;80.47
13800;BME280;6971;50.028;9.258;2023-02-04T12:23:52;101317.66;;;6.44;78.11
13800;BME280;6971;50.028;9.258;2023-02-04T12:28:53;101305.31;;;6.62;76.42
13800;BME280;6971;50.028;9.258;2023-02-04T12:33:55;101319.44;;;6.37;78.63
13800;BME280;6971;50.028;9.258;2023-02-04T12:38:56;101325.69;;;6.19;75.88
13800;BME280;6971;50.028;9.258;2023-02-04T12:43:58;101315.22;;;6.14;74.22
13800;BME280;6971;50.028;9.258;2023-02-04T12:49:01;101322.19;;;6.17;75.69
13800;BME280;6971;50.028;9.258;2023-02-04T12:54:02;101326.59;;;6.01;75.65
13800;BME280;6971;50.028;9.258;2023-02-04T12:59:03;101320.50;;;5.96;75.38
13800;BME280;6971;50.028;9.258;2023-02-04T13:04:05;101323.13;;;5.90;74.59
13800;BME280;6971;50.028;9.258;2023-02-04T13:09:05;101321.34;;;6.15;73.71
13800;BME280;6971;50.028;9.258;2023-02-04T13:14:06;101334.31;;;6.35;74.38
13800;BME280;6971;50.028;9.258;2023-02-04T13:19:07;101332.59;;;6.31;72.90
13800;BME280;6971;50.028;9.258;2023-02-04T13:24:08;101328.19;;;6.32;71.06
13800;BME280;6971;50.028;9.258;2023-02-04T13:29:09;101325.63;;;6.21;71.96
13800;BME280;6971;50.028;9.258;2023-02-04T13:34:10;101321.22;;;6.34;71.70
13800;BME280;6971;50.028;9.258;2023-02-04T13:39:23;101323.06;;;6.18;69.29
13800;BME280;6971;50.028;9.258;2023-02-04T13:44:24;101316.97;;;6.12;70.95
13800;BME280;6971;50.028;9.258;2023-02-04T13:49:26;101313.47;;;6.13;69.61
13800;BME280;6971;50.028;9.258;2023-02-04T13:54:27;101321.38;;;6.04;69.49
13800;BME280;6971;50.028;9.258;2023-02-04T13:59:28;101328.31;;;6.11;67.04
13800;BME280;6971;50.028;9.258;2023-02-04T14:04:29;101325.69;;;6.11;67.20
13800;BME280;6971;50.028;9.258;2023-02-04T14:09:30;101331.63;;;6.46;67.29
13800;BME280;6971;50.028;9.258;2023-02-04T14:14:31;101330.69;;;6.53;66.45
13800;BME280;6971;50.028;9.258;2023-02-04T14:19:31;101333.44;;;6.35;65.62
13800;BME280;6971;50.028;9.258;2023-02-04T14:24:33;101337.84;;;6.28;66.34
13800;BME280;6971;50.028;9.258;2023-02-04T14:29:48;101342.16;;;6.35;67.15
13800;BME280;6971;50.028;9.258;2023-02-04T14:34:48;101351.91;;;5.96;66.46
13800;BME280;6971;50.028;9.258;2023-02-04T14:39:49;101339.66;;;6.13;68.12
13800;BME280;6971;50.028;9.258;2023-02-04T14:44:50;101337.09;;;6.06;66.55
13800;BME280;6971;50.028;9.258;2023-02-04T14:49:52;101345.75;;;6.20;66.31
13800;BME280;6971;50.028;9.258;2023-02-04T14:54:52;101344.91;;;5.99;65.88
13800;BME280;6971;50.028;9.258;2023-02-04T14:59:54;101349.38;;;5.74;65.13
13800;BME280;6971;50.028;9.258;2023-02-04T15:04:57;101357.09;;;6.11;66.69
13800;BME280;6971;50.028;9.258;2023-02-04T15:09:59;101345.78;;;6.06;66.19
13800;BME280;6971;50.028;9.258;2023-02-04T15:15:00;101345.88;;;5.81;65.06
13800;BME280;6971;50.028;9.258;2023-02-04T15:20:02;101342.34;;;5.88;66.03
13800;BME280;6971;50.028;9.258;2023-02-04T15:25:04;101345.06;;;5.45;66.23
13800;BME280;6971;50.028;9.258;2023-02-04T15:30:05;101353.78;;;5.50;66.83
13800;BME280;6971;50.028;9.258;2023-02-04T15:35:06;101342.47;;;5.35;68.93
13800;BME280;6971;50.028;9.258;2023-02-04T15:40:08;101357.34;;;5.24;71.39
13800;BME280;6971;50.028;9.258;2023-02-04T15:45:09;101353.84;;;5.11;74.66
13800;BME280;6971;50.028;9.258;2023-02-04T15:50:10;101352.97;;;4.95;77.35
13800;BME280;6971;50.028;9.258;2023-02-04T15:55:14;101361.69;;;4.86;79.31
13800;BME280;6971;50.028;9.258;2023-02-04T16:00:15;101365.97;;;4.59;81.25
13800;BME280;6971;50.028;9.258;2023-02-04T16:05:16;101365.06;;;4.30;83.77
13800;BME280;6971;50.028;9.258;2023-02-04T16:10:18;101376.28;;;4.06;89.01
13800;BME280;6971;50.028;9.258;2023-02-04T16:15:19;101376.19;;;3.89;91.94
13800;BME280;6971;50.028;9.258;2023-02-04T16:20:20;101383.88;;;3.61;96.26
13800;BME280;6971;50.028;9.258;2023-02-04T16:25:20;101394.16;;;3.39;98.40
13800;BME280;6971;50.028;9.258;2023-02-04T16:30:24;101401.75;;;3.14;100.00
13800;BME280;6971;50.028;9.258;2023-02-04T16:35:25;101397.19;;;2.86;100.00
13800;BME280;6971;50.028;9.258;2023-02-04T16:40:27;101396.94;;;2.61;100.00
13800;BME280;6971;50.028;9.258;2023-02-04T16:45:28;101410.72;;;2.51;100.00
13800;BME280;6971;50.028;9.258;2023-02-04T16:50:28;101413.63;;;2.05;100.00
13800;BME280;6971;50.028;9.258;2023-02-04T16:55:29;101412.44;;;1.81;100.00
13800;BME280;6971;50.028;9.258;2023-02-04T17:00:29;101418.28;;;1.66;100.00
13800;BME280;6971;50.028;9.258;2023-02-04T17:05:31;101410.78;;;1.27;100.00
13800;BME280;6971;50.028;9.258;2023-02-04T17:10:32;101416.53;;;1.09;100.00
13800;BME280;6971;50.028;9.258;2023-02-04T17:16:05;101430.06;;;0.89;100.00
13800;BME280;6971;50.028;9.258;2023-02-04T17:21:07;101432.28;;;0.71;100.00
13800;BME280;6971;50.028;9.258;2023-02-04T17:26:08;101439.78;;;0.55;100.00
13800;BME280;6971;50.028;9.258;2023-02-04T17:31:09;101431.59;;;0.35;100.00
13800;BME280;6971;50.028;9.258;2023-02-04T17:36:10;101447.06;;;0.30;100.00
13800;BME280;6971;50.028;9.258;2023-02-04T17:41:13;101449.19;;;0.08;100.00
13800;BME280;6971;50.028;9.258;2023-02-04T17:46:14;101450.78;;;0.00;100.00
13800;BME280;6971;50.028;9.258;2023-02-04T17:51:15;101447.13;;;-0.08;100.00
13800;BME280;6971;50.028;9.258;2023-02-04T17:56:17;101458.06;;;-0.20;100.00
13800;BME280;6971;50.028;9.258;2023-02-04T18:01:18;101469.78;;;-0.36;100.00
13800;BME280;6971;50.028;9.258;2023-02-04T18:06:24;101474.88;;;-0.41;100.00
13800;BME280;6971;50.028;9.258;2023-02-04T18:11:30;101468.56;;;-0.53;100.00
13800;BME280;6971;50.028;9.258;2023-02-04T18:16:32;101471.31;;;-0.46;100.00
13800;BME280;6971;50.028;9.258;2023-02-04T18:21:35;101468.19;;;-0.31;100.00
13800;BME280;6971;50.028;9.258;2023-02-04T18:26:43;101467.16;;;-0.40;100.00
13800;BME280;6971;50.028;9.258;2023-02-04T18:31:52;101465.38;;;-0.42;100.00
13800;BME280;6971;50.028;9.258;2023-02-04T18:36:54;101460.09;;;-0.45;100.00
13800;BME280;6971;50.028;9.258;2023-02-04T18:41:55;101465.31;;;-0.44;100.00
13800;BME280;6971;50.028;9.258;2023-02-04T18:46:56;101455.56;;;-0.54;100.00
13800;BME280;6971;50.028;9.258;2023-02-04T18:52:05;101458.94;;;-0.57;100.00
13800;BME280;6971;50.028;9.258;2023-02-04T19:07:23;101458.41;;;-0.79;100.00
13800;BME280;6971;50.028;9.258;2023-02-04T19:12:24;101456.28;;;-0.95;100.00
13800;BME280;6971;50.028;9.258;2023-02-04T19:17:27;101457.16;;;-0.95;100.00
13800;BME280;6971;50.028;9.258;2023-02-04T19:22:46;101452.75;;;-0.97;100.00
13800;BME280;6971;50.028;9.258;2023-02-04T19:28:27;101454.16;;;-1.10;100.00
13800;BME280;6971;50.028;9.258;2023-02-04T19:33:42;101459.88;;;-1.22;100.00
13800;BME280;6971;50.028;9.258;2023-02-04T19:38:45;101464.94;;;-1.27;100.00
13800;BME280;6971;50.028;9.258;2023-02-04T19:43:47;101465.78;;;-1.28;100.00
13800;BME280;6971;50.028;9.258;2023-02-04T19:48:49;101468.13;;;-1.36;100.00
13800;BME280;6971;50.028;9.258;2023-02-04T19:54:18;101469.66;;;-1.44;100.00
13800;BME280;6971;50.028;9.258;2023-02-04T19:59:28;101475.69;;;-1.43;100.00
13800;BME280;6971;50.028;9.258;2023-02-04T20:04:34;101482.47;;;-1.47;100.00
13800;BME280;6971;50.028;9.258;2023-02-04T20:09:35;101483.13;;;-1.54;100.00
13800;BME280;6971;50.028;9.258;2023-02-04T20:14:49;101488.19;;;-1.59;100.00
13800;BME280;6971;50.028;9.258;2023-02-04T20:19:52;101483.06;;;-1.56;100.00
13800;BME280;6971;50.028;9.258;2023-02-04T20:24:55;101481.53;;;-1.49;100.00
13800;BME280;6971;50.028;9.258;2023-02-04T20:30:19;101486.06;;;-1.42;100.00
13800;BME280;6971;50.028;9.258;2023-02-04T20:40:34;101500.22;;;-1.29;100.00
13800;BME280;6971;50.028;9.258;2023-02-04T20:45:49;101497.47;;;-1.35;100.00
13800;BME280;6971;50.028;9.258;2023-02-04T20:50:56;101503.16;;;-1.16;100.00
13800;BME280;6971;50.028;9.258;2023-02-04T21:06:28;101505.66;;;-0.87;100.00
13800;BME280;6971;50.028;9.258;2023-02-04T21:11:31;101511.75;;;-0.85;100.00
13800;BME280;6971;50.028;9.258;2023-02-04T21:16:32;101510.25;;;-0.77;100.00
13800;BME280;6971;50.028;9.258;2023-02-04T21:21:33;101505.75;;;-0.84;100.00
13800;BME280;6971;50.028;9.258;2023-02-04T21:26:34;101518.72;;;-0.84;100.00
13800;BME280;6971;50.028;9.258;2023-02-04T21:31:35;101515.50;;;-0.74;100.00
13800;BME280;6971;50.028;9.258;2023-02-04T21:36:36;101513.53;;;-0.84;100.00
13800;BME280;6971;50.028;9.258;2023-02-04T21:41:38;101516.03;;;-0.87;100.00
13800;BME280;6971;50.028;9.258;2023-02-04T21:46:39;101501.72;;;-0.73;100.00
13800;BME280;6971;50.028;9.258;2023-02-04T21:51:39;101499.31;;;-0.67;100.00
13800;BME280;6971;50.028;9.258;2023-02-04T21:56:40;101498.53;;;-0.62;100.00
13800;BME280;6971;50.028;9.258;2023-02-04T22:01:41;101485.09;;;-0.47;100.00
13800;BME280;6971;50.028;9.258;2023-02-04T22:06:43;101484.34;;;-0.42;100.00
13800;BME280;6971;50.028;9.258;2023-02-04T22:11:44;101487.94;;;-0.36;100.00
13800;BME280;6971;50.028;9.258;2023-02-04T22:16:47;101491.28;;;-0.42;100.00
13800;BME280;6971;50.028;9.258;2023-02-04T22:21:48;101495.28;;;-0.18;100.00
13800;BME280;6971;50.028;9.258;2023-02-04T22:26:49;101498.91;;;-0.11;100.00
13800;BME280;6971;50.028;9.258;2023-02-04T22:31:53;101499.97;;;-0.03;100.00
13800;BME280;6971;50.028;9.258;2023-02-04T22:36:54;101500.81;;;-0.04;100.00
13800;BME280;6971;50.028;9.258;2023-02-04T22:41:55;101492.88;;;-0.10;100.00
13800;BME280;6971;50.028;9.258;2023-02-04T22:46:56;101489.66;;;0.00;100.00
13800;BME280;6971;50.028;9.258;2023-02-04T22:51:58;101485.53;;;0.10;100.00
13800;BME280;6971;50.028;9.258;2023-02-04T22:56:59;101482.28;;;0.19;100.00
13800;BME280;6971;50.028;9.258;2023-02-04T23:02:00;101493.53;;;0.19;100.00
13800;BME280;6971;50.028;9.258;2023-02-04T23:07:01;101496.03;;;0.15;100.00
13800;BME280;6971;50.028;9.258;2023-02-04T23:12:04;101497.03;;;0.21;100.00
13800;BME280;6971;50.028;9.258;2023-02-04T23:17:15;101508.34;;;0.25;100.00
13800;BME280;6971;50.028;9.258;2023-02-04T23:22:17;101498.88;;;0.25;100.00
13800;BME280;6971;50.028;9.258;2023-02-04T23:27:18;101502.66;;;0.42;100.00
13800;BME280;6971;50.028;9.258;2023-02-04T23:32:19;101496.78;;;0.50;100.00
13800;BME280;6971;50.028;9.258;2023-02-04T23:37:20;101498.56;;;0.53;100.00
13800;BME280;6971;50.028;9.258;2023-02-04T23:42:20;101503.97;;;0.62;100.00
13800;BME280;6971;50.028;9.258;2023-02-04T23:47:21;101505.63;;;0.60;100.00
13800;BME280;6971;50.028;9.258;2023-02-04T23:52:22;101498.81;;;0.65;100.00
13800;BME280;6971;50.028;9.258;2023-02-04T23:57:23;101497.41;;;0.83;100.00
